createdAt,value
2018-05-12T00:00:10.394Z,11.56
2018-05-12T00:02:37.950Z,11.56
2018-05-12T00:05:05.518Z,11.57
2018-05-12T00:07:33.113Z,11.66
2018-05-12T00:10:00.669Z,11.71
2018-05-12T00:12:28.190Z,11.76
2018-05-12T00:14:55.834Z,11.78
2018-05-12T00:17:23.407Z,11.72
2018-05-12T00:19:50.970Z,11.66
2018-05-12T00:22:18.551Z,11.61
2018-05-12T00:24:46.119Z,11.61
2018-05-12T00:27:13.668Z,11.58
2018-05-12T00:29:41.210Z,11.59
2018-05-12T00:32:08.721Z,11.58
2018-05-12T00:34:36.300Z,11.57
2018-05-12T00:37:03.873Z,11.54
2018-05-12T00:39:31.414Z,11.43
2018-05-12T00:41:58.980Z,11.42
2018-05-12T00:44:26.555Z,11.34
2018-05-12T00:46:54.117Z,11.33
2018-05-12T00:49:21.709Z,11.30
2018-05-12T00:51:49.254Z,11.29
2018-05-12T00:54:16.776Z,11.30
2018-05-12T00:56:44.362Z,11.33
2018-05-12T00:59:11.873Z,11.32
2018-05-12T01:01:39.394Z,11.32
2018-05-12T01:04:07.035Z,11.33
2018-05-12T01:06:34.607Z,11.33
2018-05-12T01:09:02.158Z,11.32
2018-05-12T01:11:29.786Z,11.29
2018-05-12T01:13:57.350Z,11.28
2018-05-12T01:16:25.934Z,11.24
2018-05-12T01:18:53.556Z,11.20
2018-05-12T01:21:21.128Z,11.13
2018-05-12T01:23:48.685Z,11.11
2018-05-12T01:26:16.250Z,11.08
2018-05-12T01:28:43.770Z,10.94
2018-05-12T01:31:11.295Z,11.05
2018-05-12T01:33:38.845Z,11.02
2018-05-12T01:36:06.350Z,11.03
2018-05-12T01:38:33.883Z,11.05
2018-05-12T01:41:01.443Z,11.02
2018-05-12T01:43:29.014Z,10.99
2018-05-12T01:45:56.607Z,10.94
2018-05-12T01:48:24.390Z,10.91
2018-05-12T01:50:51.929Z,10.89
2018-05-12T01:53:19.506Z,10.86
2018-05-12T01:55:47.081Z,10.87
2018-05-12T01:58:14.652Z,10.83
2018-05-12T02:00:42.183Z,10.79
2018-05-12T02:03:09.835Z,10.73
2018-05-12T02:05:37.354Z,10.68
2018-05-12T02:08:04.900Z,10.60
2018-05-12T02:10:32.466Z,10.53
2018-05-12T02:13:00.070Z,10.55
2018-05-12T02:15:27.673Z,10.53
2018-05-12T02:17:55.269Z,10.57
2018-05-12T02:20:22.798Z,10.54
2018-05-12T02:22:50.363Z,10.49
2018-05-12T02:25:18.023Z,10.45
2018-05-12T02:27:45.589Z,10.41
2018-05-12T02:30:13.123Z,10.22
2018-05-12T02:32:40.701Z,10.33
2018-05-12T02:35:08.218Z,10.34
2018-05-12T02:37:35.815Z,10.33
2018-05-12T02:40:03.981Z,10.29
2018-05-12T02:42:31.491Z,10.27
2018-05-12T02:44:59.637Z,10.23
2018-05-12T02:47:27.202Z,10.18
2018-05-12T02:49:54.709Z,10.15
2018-05-12T02:52:22.258Z,10.14
2018-05-12T02:54:49.817Z,10.11
2018-05-12T02:57:17.399Z,10.10
2018-05-12T02:59:44.934Z,10.09
2018-05-12T03:02:12.474Z,10.11
2018-05-12T03:04:40.020Z,10.11
2018-05-12T03:07:07.559Z,10.11
2018-05-12T03:09:35.103Z,10.05
2018-05-12T03:12:02.614Z,10.04
2018-05-12T03:14:30.134Z,10.04
2018-05-12T03:16:57.716Z,10.06
2018-05-12T03:19:25.259Z,10.05
2018-05-12T03:21:52.820Z,10.06
2018-05-12T03:24:20.713Z,10.02
2018-05-12T03:26:48.240Z,9.96
2018-05-12T03:29:15.812Z,9.97
2018-05-12T03:31:43.379Z,9.99
2018-05-12T03:34:10.919Z,10.00
2018-05-12T03:36:38.442Z,10.01
2018-05-12T03:39:06.011Z,10.01
2018-05-12T03:41:33.572Z,9.98
2018-05-12T03:44:01.086Z,9.96
2018-05-12T03:46:28.655Z,10.01
2018-05-12T03:48:56.195Z,10.11
2018-05-12T03:51:23.777Z,10.21
2018-05-12T03:53:51.353Z,10.37
2018-05-12T03:56:18.882Z,10.61
2018-05-12T03:58:46.435Z,10.85
2018-05-12T04:01:14.032Z,11.12
2018-05-12T04:03:41.547Z,11.44
2018-05-12T04:06:20.930Z,11.82
2018-05-12T04:09:00.180Z,12.15
2018-05-12T04:11:40.441Z,12.58
2018-05-12T04:14:08.004Z,13.11
2018-05-12T04:16:36.314Z,13.55
2018-05-12T04:19:03.872Z,13.95
2018-05-12T04:21:31.386Z,14.33
2018-05-12T04:23:58.918Z,14.63
2018-05-12T04:26:26.493Z,14.95
2018-05-12T04:28:54.012Z,15.39
2018-05-12T04:31:21.540Z,15.80
2018-05-12T04:33:49.097Z,16.38
2018-05-12T04:36:16.635Z,16.66
2018-05-12T04:38:44.175Z,16.80
2018-05-12T04:41:12.617Z,17.07
2018-05-12T04:43:40.183Z,17.03
2018-05-12T04:46:07.733Z,16.67
2018-05-12T04:48:37.785Z,15.51
2018-05-12T04:51:05.302Z,14.93
2018-05-12T04:53:33.261Z,14.83
2018-05-12T04:56:00.826Z,14.79
2018-05-12T04:58:28.375Z,14.67
2018-05-12T05:00:55.946Z,14.34
2018-05-12T05:03:23.522Z,14.02
2018-05-12T05:05:51.170Z,14.07
2018-05-12T05:08:18.709Z,14.02
2018-05-12T05:10:46.245Z,13.93
2018-05-12T05:13:13.763Z,13.96
2018-05-12T05:15:41.264Z,14.01
2018-05-12T05:18:08.807Z,14.15
2018-05-12T05:20:36.320Z,14.21
2018-05-12T05:23:03.830Z,14.31
2018-05-12T05:25:31.403Z,14.44
2018-05-12T05:27:58.917Z,14.48
2018-05-12T05:30:26.429Z,14.59
2018-05-12T05:32:53.969Z,14.44
2018-05-12T05:35:21.475Z,14.56
2018-05-12T05:37:49.021Z,14.63
2018-05-12T05:40:16.563Z,14.72
2018-05-12T05:42:44.083Z,14.57
2018-05-12T05:45:11.647Z,14.63
2018-05-12T05:47:39.247Z,14.88
2018-05-12T05:50:06.980Z,15.04
2018-05-12T05:52:34.501Z,14.88
2018-05-12T05:55:02.088Z,14.96
2018-05-12T05:57:30.268Z,14.98
2018-05-12T05:59:58.170Z,15.15
2018-05-12T06:02:25.803Z,15.38
2018-05-12T06:04:53.418Z,15.58
2018-05-12T06:07:20.965Z,15.76
2018-05-12T06:09:48.544Z,15.94
2018-05-12T06:12:16.150Z,16.58
2018-05-12T06:14:43.736Z,18.05
2018-05-12T06:17:11.402Z,19.13
2018-05-12T06:19:38.943Z,19.05
2018-05-12T06:22:06.458Z,19.61
2018-05-12T06:24:34.038Z,19.21
2018-05-12T06:27:01.612Z,19.58
2018-05-12T06:29:29.163Z,18.94
2018-05-12T06:31:56.768Z,18.68
2018-05-12T06:34:24.405Z,18.38
2018-05-12T06:36:51.934Z,18.17
2018-05-12T06:39:19.583Z,18.43
2018-05-12T06:41:47.112Z,18.68
2018-05-12T06:44:14.683Z,18.64
2018-05-12T06:46:42.279Z,18.35
2018-05-12T06:49:09.819Z,18.33
2018-05-12T06:51:37.377Z,18.57
2018-05-12T06:54:04.965Z,18.69
2018-05-12T06:56:32.577Z,18.75
2018-05-12T06:59:00.136Z,18.88
2018-05-12T07:01:27.724Z,18.67
2018-05-12T07:03:55.251Z,18.62
2018-05-12T07:06:22.781Z,18.70
2018-05-12T07:08:50.341Z,19.33
2018-05-12T07:11:17.942Z,22.62
2018-05-12T07:13:45.482Z,24.36
2018-05-12T07:16:13.013Z,26.53
2018-05-12T07:18:40.600Z,27.31
2018-05-12T07:21:08.127Z,27.34
2018-05-12T07:23:36.428Z,28.91
2018-05-12T07:26:03.934Z,29.04
2018-05-12T07:28:31.446Z,28.85
2018-05-12T07:30:59.023Z,27.84
2018-05-12T07:33:26.585Z,27.66
2018-05-12T07:35:54.150Z,29.95
2018-05-12T07:38:21.778Z,30.23
2018-05-12T07:40:49.321Z,29.17
2018-05-12T07:43:16.844Z,28.62
2018-05-12T07:45:49.410Z,29.41
2018-05-12T07:48:19.392Z,30.25
2018-05-12T07:50:46.998Z,30.72
2018-05-12T07:53:14.511Z,31.55
2018-05-12T07:55:42.032Z,31.70
2018-05-12T07:58:09.592Z,32.01
2018-05-12T08:00:37.109Z,31.68
2018-05-12T08:03:04.614Z,33.20
2018-05-12T08:05:32.161Z,33.54
2018-05-12T08:07:59.687Z,33.95
2018-05-12T08:10:27.215Z,33.68
2018-05-12T08:12:54.843Z,33.68
2018-05-12T08:15:22.335Z,33.62
2018-05-12T08:17:49.869Z,32.16
2018-05-12T08:20:17.452Z,33.18
2018-05-12T08:22:45.091Z,33.46
2018-05-12T08:25:12.657Z,33.40
2018-05-12T08:27:40.205Z,33.72
2018-05-12T08:30:07.713Z,33.65
2018-05-12T08:32:35.211Z,32.70
2018-05-12T08:35:02.764Z,33.24
2018-05-12T08:37:30.303Z,33.51
2018-05-12T08:39:57.867Z,34.20
2018-05-12T08:42:25.452Z,34.30
2018-05-12T08:44:52.989Z,34.81
2018-05-12T08:47:20.514Z,36.01
2018-05-12T08:49:48.186Z,35.38
2018-05-12T08:52:15.726Z,32.96
2018-05-12T08:54:43.283Z,34.21
2018-05-12T08:57:10.834Z,33.29
2018-05-12T08:59:38.388Z,32.16
2018-05-12T09:02:05.911Z,31.53
2018-05-12T09:04:33.491Z,33.75
2018-05-12T09:07:01.038Z,33.38
2018-05-12T09:09:28.585Z,32.17
2018-05-12T09:11:56.145Z,33.91
2018-05-12T09:14:23.794Z,33.03
2018-05-12T09:16:52.298Z,33.19
2018-05-12T09:19:20.097Z,34.71
2018-05-12T09:21:47.614Z,34.96
2018-05-12T09:24:15.159Z,35.07
2018-05-12T09:26:42.725Z,32.49
2018-05-12T09:29:10.260Z,32.56
2018-05-12T09:31:37.802Z,34.68
2018-05-12T09:34:05.367Z,33.58
2018-05-12T09:36:32.904Z,32.12
2018-05-12T09:39:00.441Z,31.89
2018-05-12T09:41:30.587Z,30.83
2018-05-12T09:43:58.707Z,31.73
2018-05-12T09:46:26.377Z,31.34
2018-05-12T09:48:54.014Z,31.02
2018-05-12T09:51:21.577Z,30.54
2018-05-12T09:53:49.246Z,29.87
2018-05-12T09:56:16.802Z,30.37
2018-05-12T09:58:44.344Z,29.36
2018-05-12T10:01:11.935Z,30.37
2018-05-12T10:03:39.641Z,29.93
2018-05-12T10:06:07.291Z,29.85
2018-05-12T10:08:34.828Z,29.66
2018-05-12T10:11:02.465Z,29.85
2018-05-12T10:13:30.055Z,31.18
2018-05-12T10:15:57.574Z,30.44
2018-05-12T10:18:25.143Z,31.45
2018-05-12T10:20:52.646Z,30.88
2018-05-12T10:23:20.166Z,30.80
2018-05-12T10:25:47.707Z,29.75
2018-05-12T10:28:15.284Z,29.61
2018-05-12T10:30:42.803Z,30.56
2018-05-12T10:33:10.340Z,30.53
2018-05-12T10:35:37.878Z,30.23
2018-05-12T10:38:05.435Z,32.27
2018-05-12T10:40:32.994Z,31.03
2018-05-12T10:43:00.566Z,30.23
2018-05-12T10:45:28.223Z,31.77
2018-05-12T10:47:55.775Z,30.67
2018-05-12T10:50:23.357Z,30.37
2018-05-12T10:52:50.862Z,30.54
2018-05-12T10:55:18.430Z,31.25
2018-05-12T10:57:46.014Z,30.37
2018-05-12T11:00:13.556Z,30.48
2018-05-12T11:02:41.176Z,32.32
2018-05-12T11:05:08.746Z,31.04
2018-05-12T11:07:36.267Z,30.29
2018-05-12T11:10:03.908Z,29.25
2018-05-12T11:12:31.474Z,28.86
2018-05-12T11:14:59.026Z,29.51
2018-05-12T11:17:26.586Z,30.02
2018-05-12T11:19:54.162Z,29.01
2018-05-12T11:22:21.702Z,27.68
2018-05-12T11:24:50.094Z,27.72
2018-05-12T11:27:17.613Z,27.41
2018-05-12T11:29:45.133Z,26.75
2018-05-12T11:32:12.808Z,26.93
2018-05-12T11:34:40.425Z,27.31
2018-05-12T11:37:07.995Z,26.82
2018-05-12T11:39:35.652Z,27.75
2018-05-12T11:42:03.214Z,27.76
2018-05-12T11:44:30.872Z,27.72
2018-05-12T11:46:58.503Z,27.70
2018-05-12T11:49:26.096Z,28.24
2018-05-12T11:51:53.662Z,27.85
2018-05-12T11:54:21.206Z,26.06
2018-05-12T11:56:48.753Z,25.55
2018-05-12T11:59:16.282Z,25.17
2018-05-12T12:01:43.922Z,25.33
2018-05-12T12:04:11.457Z,25.44
2018-05-12T12:06:39.038Z,25.30
2018-05-12T12:09:06.606Z,25.64
2018-05-12T12:11:34.170Z,25.33
2018-05-12T12:14:02.150Z,25.24
2018-05-12T12:16:30.005Z,25.30
2018-05-12T12:18:57.537Z,25.49
2018-05-12T12:21:25.070Z,25.32
2018-05-12T12:23:52.650Z,25.52
2018-05-12T12:26:20.354Z,25.84
2018-05-12T12:28:48.700Z,25.72
2018-05-12T12:31:16.250Z,25.63
2018-05-12T12:33:43.741Z,25.40
2018-05-12T12:36:11.285Z,25.99
2018-05-12T12:41:04.657Z,25.40
2018-05-12T12:43:32.212Z,25.54
2018-05-12T12:45:59.729Z,25.60
2018-05-12T12:48:27.320Z,25.42
2018-05-12T12:50:54.871Z,25.41
2018-05-12T12:53:22.412Z,25.33
2018-05-12T12:55:49.979Z,25.37
2018-05-12T12:58:17.551Z,24.52
2018-05-12T13:00:45.158Z,25.08
2018-05-12T13:03:12.751Z,24.72
2018-05-12T13:05:40.274Z,25.51
2018-05-12T13:08:07.779Z,25.36
2018-05-12T13:10:35.351Z,25.51
2018-05-12T13:13:02.877Z,25.35
2018-05-12T13:15:30.464Z,25.30
2018-05-12T13:17:58.030Z,25.52
2018-05-12T13:20:25.558Z,25.43
2018-05-12T13:22:53.095Z,25.38
2018-05-12T13:25:20.647Z,25.36
2018-05-12T13:27:48.174Z,25.53
2018-05-12T13:30:15.699Z,25.48
2018-05-12T13:32:43.217Z,25.24
2018-05-12T13:35:10.711Z,25.50
2018-05-12T13:37:38.241Z,25.49
2018-05-12T13:40:05.757Z,25.47
2018-05-12T13:42:33.237Z,25.31
2018-05-12T13:45:00.726Z,25.50
2018-05-12T13:47:28.239Z,25.63
2018-05-12T13:49:55.721Z,25.63
2018-05-12T13:52:23.210Z,25.88
2018-05-12T13:54:50.734Z,25.88
2018-05-12T13:57:18.220Z,25.83
2018-05-12T13:59:45.707Z,25.70
2018-05-12T14:02:13.226Z,25.63
2018-05-12T14:04:40.713Z,25.86
2018-05-12T14:07:08.210Z,25.85
2018-05-12T14:09:36.692Z,25.90
2018-05-12T14:12:04.181Z,25.62
2018-05-12T14:14:31.670Z,25.50
2018-05-12T14:16:59.186Z,25.60
2018-05-12T14:19:26.687Z,25.57
2018-05-12T14:21:54.191Z,25.84
2018-05-12T14:24:21.730Z,25.71
2018-05-12T14:26:49.227Z,25.91
2018-05-12T14:29:16.719Z,25.66
2018-05-12T14:31:44.240Z,25.67
2018-05-12T14:34:11.724Z,25.87
2018-05-12T14:36:39.214Z,25.89
2018-05-12T14:39:06.731Z,25.95
2018-05-12T14:41:34.217Z,25.77
2018-05-12T14:44:01.705Z,25.86
2018-05-12T14:46:29.302Z,25.75
2018-05-12T14:48:56.729Z,25.68
2018-05-12T14:51:24.214Z,25.97
2018-05-12T14:53:51.730Z,26.17
2018-05-12T14:56:19.213Z,25.80
2018-05-12T14:58:46.693Z,25.88
2018-05-12T15:01:14.207Z,25.98
2018-05-12T15:03:41.709Z,25.87
2018-05-12T15:06:09.257Z,25.87
2018-05-12T15:08:36.775Z,25.64
2018-05-12T15:11:04.261Z,25.81
2018-05-12T15:13:31.757Z,25.86
2018-05-12T15:15:59.274Z,25.86
2018-05-12T15:18:26.770Z,25.86
2018-05-12T15:20:54.287Z,25.92
2018-05-12T15:23:21.798Z,25.86
2018-05-12T15:25:49.285Z,25.78
2018-05-12T15:28:16.774Z,25.61
2018-05-12T15:30:44.290Z,25.78
2018-05-12T15:33:11.778Z,25.63
2018-05-12T15:35:39.266Z,25.97
2018-05-12T15:38:06.782Z,25.78
2018-05-12T15:40:34.275Z,25.59
2018-05-12T15:43:01.776Z,25.55
2018-05-12T15:45:29.291Z,25.62
2018-05-12T15:47:56.776Z,25.75
2018-05-12T15:50:24.266Z,25.76
2018-05-12T15:52:51.786Z,25.71
2018-05-12T15:55:19.265Z,25.71
2018-05-12T15:57:46.758Z,25.52
2018-05-12T16:00:14.275Z,25.73
2018-05-12T16:02:41.771Z,25.53
2018-05-12T16:05:09.309Z,25.63
2018-05-12T16:07:36.827Z,25.72
2018-05-12T16:10:04.317Z,25.62
2018-05-12T16:12:31.801Z,25.62
2018-05-12T16:14:59.314Z,25.81
2018-05-12T16:17:26.793Z,25.66
2018-05-12T16:19:54.278Z,25.80
2018-05-12T16:22:21.795Z,25.72
2018-05-12T16:24:49.284Z,25.62
2018-05-12T16:27:16.774Z,25.56
2018-05-12T16:29:44.295Z,25.72
2018-05-12T16:32:11.782Z,25.61
2018-05-12T16:34:39.275Z,25.72
2018-05-12T16:37:06.785Z,25.59
2018-05-12T16:39:34.351Z,25.50
2018-05-12T16:42:01.843Z,25.47
2018-05-12T16:44:29.396Z,25.48
2018-05-12T16:46:56.874Z,25.38
2018-05-12T16:49:24.356Z,25.29
2018-05-12T16:51:51.876Z,25.24
2018-05-12T16:54:19.386Z,25.18
2018-05-12T16:56:47.229Z,25.12
2018-05-12T16:59:14.771Z,25.08
2018-05-12T17:01:42.274Z,25.01
2018-05-12T17:04:09.787Z,24.95
2018-05-12T17:06:37.314Z,25.04
2018-05-12T17:09:05.755Z,24.98
2018-05-12T17:11:33.241Z,24.97
2018-05-12T17:14:00.760Z,24.89
2018-05-12T17:16:28.253Z,24.82
2018-05-12T17:18:55.747Z,24.78
2018-05-12T17:21:23.269Z,24.78
2018-05-12T17:23:50.762Z,24.74
2018-05-12T17:26:18.253Z,24.73
2018-05-12T17:28:45.785Z,24.64
2018-05-12T17:31:13.273Z,24.52
2018-05-12T17:33:40.767Z,24.49
2018-05-12T17:36:08.278Z,24.42
2018-05-12T17:38:35.780Z,24.38
2018-05-12T17:41:03.270Z,24.33
2018-05-12T17:43:30.799Z,24.29
2018-05-12T17:45:58.295Z,24.23
2018-05-12T17:48:25.787Z,24.19
2018-05-12T17:50:53.315Z,24.13
2018-05-12T17:53:20.819Z,24.02
2018-05-12T17:55:48.391Z,23.93
2018-05-12T17:58:15.844Z,23.85
2018-05-12T18:00:43.338Z,23.80
2018-05-12T18:03:10.830Z,23.76
2018-05-12T18:05:38.361Z,23.70
2018-05-12T18:08:05.860Z,23.64
2018-05-12T18:10:33.349Z,23.58
2018-05-12T18:13:00.867Z,23.47
2018-05-12T18:15:28.350Z,23.39
2018-05-12T18:17:55.849Z,23.34
2018-05-12T18:20:23.367Z,23.29
2018-05-12T18:22:50.922Z,23.19
2018-05-12T18:25:18.423Z,23.03
2018-05-12T18:27:45.943Z,23.04
2018-05-12T18:30:13.424Z,22.97
2018-05-12T18:32:40.913Z,22.85
2018-05-12T18:35:08.426Z,22.76
2018-05-12T18:37:35.918Z,22.74
2018-05-12T18:40:03.421Z,22.66
2018-05-12T18:42:30.952Z,22.52
2018-05-12T18:44:58.452Z,22.38
2018-05-12T18:47:25.941Z,22.27
2018-05-12T18:49:54.426Z,22.20
2018-05-12T18:52:22.058Z,22.10
2018-05-12T18:54:49.599Z,21.98
2018-05-12T18:57:17.175Z,21.99
2018-05-12T18:59:44.706Z,21.85
2018-05-12T19:02:12.289Z,21.81
2018-05-12T19:04:39.825Z,21.77
2018-05-12T19:07:07.388Z,21.74
2018-05-12T19:09:34.986Z,21.70
2018-05-12T19:12:02.550Z,21.57
2018-05-12T19:14:30.094Z,21.55
2018-05-12T19:16:57.674Z,21.43
2018-05-12T19:19:25.264Z,21.27
2018-05-12T19:21:52.777Z,21.28
2018-05-12T19:24:20.289Z,21.27
2018-05-12T19:26:47.842Z,21.20
2018-05-12T19:29:15.443Z,21.02
2018-05-12T19:31:42.994Z,21.00
2018-05-12T19:34:10.569Z,20.94
2018-05-12T19:36:38.099Z,20.91
2018-05-12T19:39:05.631Z,20.88
2018-05-12T19:41:33.178Z,20.82
2018-05-12T19:44:00.717Z,20.77
2018-05-12T19:46:28.221Z,20.73
2018-05-12T19:48:55.786Z,20.64
2018-05-12T19:51:23.337Z,20.64
2018-05-12T19:53:50.858Z,20.59
2018-05-12T19:56:18.429Z,20.50
2018-05-12T19:58:45.983Z,20.40
2018-05-12T20:01:13.621Z,20.35
2018-05-12T20:03:41.209Z,20.29
2018-05-12T20:06:08.764Z,20.28
2018-05-12T20:08:36.322Z,20.19
2018-05-12T20:11:03.892Z,20.18
2018-05-12T20:13:31.488Z,20.19
2018-05-12T20:15:59.110Z,20.26
2018-05-12T20:18:26.653Z,20.09
2018-05-12T20:20:54.514Z,20.00
2018-05-12T20:23:22.055Z,19.93
2018-05-12T20:25:49.938Z,19.89
2018-05-12T20:28:17.594Z,19.93
2018-05-12T20:30:45.412Z,19.81
2018-05-12T20:33:12.972Z,19.85
2018-05-12T20:35:40.504Z,19.87
2018-05-12T20:38:08.013Z,19.81
2018-05-12T20:40:35.590Z,19.79
2018-05-12T20:43:03.152Z,19.79
2018-05-12T20:45:30.710Z,19.75
2018-05-12T20:47:58.269Z,19.67
2018-05-12T20:50:25.801Z,19.69
2018-05-12T20:52:53.324Z,19.65
2018-05-12T20:55:20.840Z,19.54
2018-05-12T20:57:49.636Z,19.53
2018-05-12T21:00:17.207Z,19.43
2018-05-12T21:02:45.238Z,19.35
2018-05-12T21:05:12.742Z,19.34
2018-05-12T21:07:40.263Z,19.32
2018-05-12T21:10:07.822Z,19.28
2018-05-12T21:12:35.354Z,19.30
2018-05-12T21:15:02.952Z,19.23
2018-05-12T21:17:30.722Z,19.17
2018-05-12T21:19:58.239Z,19.18
2018-05-12T21:22:25.762Z,19.08
2018-05-12T21:24:53.289Z,19.01
2018-05-12T21:27:20.811Z,19.02
2018-05-12T21:29:48.356Z,18.97
2018-05-12T21:32:15.965Z,18.95
2018-05-12T21:34:43.492Z,18.87
2018-05-12T21:37:11.042Z,18.82
2018-05-12T21:39:38.678Z,18.86
2018-05-12T21:42:06.188Z,18.81
2018-05-12T21:44:33.719Z,18.78
2018-05-12T21:47:01.297Z,18.76
2018-05-12T21:49:28.796Z,18.76
2018-05-12T21:51:56.318Z,18.74
2018-05-12T21:54:23.845Z,18.68
2018-05-12T21:56:51.334Z,18.65
2018-05-12T21:59:18.858Z,18.63
2018-05-12T22:01:46.394Z,18.50
2018-05-12T22:04:13.910Z,18.45
2018-05-12T22:06:41.425Z,18.36
2018-05-12T22:09:08.986Z,18.37
2018-05-12T22:11:36.522Z,18.30
2018-05-12T22:14:04.067Z,18.32
2018-05-12T22:16:31.593Z,18.29
2018-05-12T22:18:59.098Z,18.25
2018-05-12T22:21:26.638Z,18.22
2018-05-12T22:23:54.206Z,18.20
2018-05-12T22:26:21.767Z,18.20
2018-05-12T22:28:49.314Z,18.16
2018-05-12T22:31:16.849Z,18.14
2018-05-12T22:33:44.359Z,18.14
2018-05-12T22:36:11.864Z,18.11
2018-05-12T22:38:39.448Z,18.11
2018-05-12T22:41:06.990Z,18.07
2018-05-12T22:43:34.493Z,18.03
2018-05-12T22:46:02.059Z,18.01
2018-05-12T22:48:29.579Z,17.92
2018-05-12T22:50:57.127Z,17.83
2018-05-12T22:53:24.688Z,17.84
2018-05-12T22:55:52.215Z,17.74
2018-05-12T22:58:20.371Z,17.72
2018-05-12T23:00:47.922Z,17.72
2018-05-12T23:03:15.470Z,17.70
2018-05-12T23:05:43.036Z,17.73
2018-05-12T23:08:10.612Z,17.70
2018-05-12T23:10:38.148Z,17.64
2018-05-12T23:13:05.685Z,17.59
2018-05-12T23:15:33.263Z,17.55
2018-05-12T23:18:00.801Z,17.46
2018-05-12T23:20:28.311Z,17.45
2018-05-12T23:22:55.858Z,17.41
2018-05-12T23:25:23.415Z,17.39
2018-05-12T23:27:50.936Z,17.37
2018-05-12T23:30:18.509Z,17.32
2018-05-12T23:32:46.055Z,17.21
2018-05-12T23:35:13.586Z,17.01
2018-05-12T23:37:41.150Z,17.03
2018-05-12T23:40:08.658Z,17.14
2018-05-12T23:42:36.180Z,17.11
2018-05-12T23:45:03.738Z,17.09
2018-05-12T23:47:31.259Z,17.06
2018-05-12T23:49:58.778Z,17.03
2018-05-12T23:52:26.299Z,16.92
2018-05-12T23:54:53.781Z,16.89
2018-05-12T23:57:21.299Z,16.82
2018-05-12T23:59:48.871Z,16.77
